Time;durP1;ratioP1;P1;durP2;ratioP2;P2;SDS_P1;SDS_P2;PMS_P1;PMS_P2;Temp;Humidity;BMP_temperature;BMP_pressure;BME280_temperature;BME280_humidity;BME280_pressure;Samples;Min_cycle;Max_cycle;Signal;HPM_P1;HPM_P2
2022/05/09 00:00:29;;;;;;;1.98;1.20;;;;;;;21.04;38.88;101872.66;4165357;28;20021;-63
2022/05/09 00:02:30;;;;;;;2.35;1.10;;;;;;;21.02;38.98;101881.25;4165396;28;20566;-63
2022/05/09 00:04:31;;;;;;;1.77;1.30;;;;;;;21.04;38.93;101892.16;4165326;28;20033;-63
2022/05/09 00:06:39;;;;;;;1.98;1.13;;;;;;;21.03;39.22;101896.88;4163771;28;20079;-63
2022/05/09 00:08:42;;;;;;;1.45;1.17;;;;;;;21.04;39.04;101900.50;4165126;28;20034;-63
2022/05/09 00:10:46;;;;;;;1.33;1.20;;;;;;;21.01;38.80;101898.22;4163588;28;20099;-63
2022/05/09 00:12:48;;;;;;;2.80;1.42;;;;;;;21.00;39.21;101914.06;4165126;28;20049;-63
2022/05/09 00:14:53;;;;;;;1.48;1.20;;;;;;;20.87;38.87;101885.78;4164078;28;20026;-63
2022/05/09 00:16:54;;;;;;;1.25;1.10;;;;;;;20.99;39.15;101909.63;4164699;28;20107;-62
2022/05/09 00:18:55;;;;;;;2.00;1.00;;;;;;;21.00;39.15;101918.81;4164827;28;20060;-63
2022/05/09 00:20:56;;;;;;;3.63;1.35;;;;;;;20.93;39.41;101901.44;4164820;28;20037;-63
2022/05/09 00:23:06;;;;;;;1.52;0.98;;;;;;;20.97;39.16;101919.31;4164774;28;20099;-63
2022/05/09 00:25:08;;;;;;;3.05;1.40;;;;;;;20.89;39.25;101903.06;4164735;28;20155;-63
2022/05/09 00:27:10;;;;;;;1.50;1.27;;;;;;;20.96;38.91;101914.84;4164044;28;20041;-63
2022/05/09 00:29:12;;;;;;;2.30;1.23;;;;;;;20.92;38.96;101910.91;4164755;28;20465;-63
2022/05/09 00:31:16;;;;;;;2.10;1.10;;;;;;;20.83;39.26;101904.09;4164880;28;20029;-63
2022/05/09 00:33:18;;;;;;;1.67;1.00;;;;;;;20.95;39.31;101921.53;4164811;28;20416;-63
2022/05/09 00:35:22;;;;;;;1.77;1.20;;;;;;;20.95;39.17;101929.88;4165026;28;20779;-63
2022/05/09 00:37:24;;;;;;;1.63;1.20;;;;;;;20.92;39.29;101928.44;4164956;28;20091;-63
2022/05/09 00:39:25;;;;;;;3.03;1.30;;;;;;;20.80;39.13;101908.22;4147809;28;20038;-63
2022/05/09 00:41:37;;;;;;;1.65;1.25;;;;;;;20.86;39.41;101918.34;4164648;28;20099;-63
2022/05/09 00:43:40;;;;;;;1.73;1.23;;;;;;;20.92;39.40;101941.50;4164731;28;20041;-63
2022/05/09 00:45:42;;;;;;;1.75;1.10;;;;;;;20.91;39.20;101948.19;4164760;28;20041;-64
2022/05/09 00:47:43;;;;;;;1.58;1.10;;;;;;;20.89;39.20;101951.22;4164605;28;20037;-63
2022/05/09 00:49:59;;;;;;;1.52;1.08;;;;;;;20.88;39.27;101951.47;4164539;28;20103;-64
2022/05/09 00:52:31;;;;;;;1.58;1.33;;;;;;;20.86;39.52;101957.28;4164122;28;20037;-63
2022/05/09 00:54:43;;;;;;;2.47;1.15;;;;;;;20.88;39.53;101960.66;4156837;28;20033;-63
2022/05/09 00:56:58;;;;;;;1.95;1.13;;;;;;;20.81;39.30;101955.28;4165397;28;20045;-63
2022/05/09 00:59:07;;;;;;;2.85;1.25;;;;;;;20.89;39.11;101972.59;4164826;28;20099;-63
2022/05/09 01:01:13;;;;;;;2.08;1.35;;;;;;;20.88;39.60;101970.94;4165348;28;20370;-63
2022/05/09 01:03:24;;;;;;;1.67;1.10;;;;;;;20.86;39.45;101973.16;4164831;28;20029;-63
2022/05/09 01:05:27;;;;;;;1.23;1.10;;;;;;;20.87;39.49;101977.59;4179161;28;20512;-63
2022/05/09 01:07:30;;;;;;;2.28;1.08;;;;;;;20.88;39.42;101979.28;4163586;28;20037;-64
2022/05/09 01:09:31;;;;;;;1.90;1.15;;;;;;;20.86;39.65;101976.75;4164526;28;20049;-62
2022/05/09 01:11:40;;;;;;;1.38;1.20;;;;;;;20.68;39.63;101943.66;4163652;28;20441;-62
2022/05/09 01:13:47;;;;;;;2.78;1.20;;;;;;;20.85;39.30;101975.09;4179862;28;20037;-63
2022/05/09 01:15:52;;;;;;;1.63;1.25;;;;;;;20.85;39.40;101977.00;4164443;28;20041;-63
2022/05/09 01:17:54;;;;;;;2.00;1.48;;;;;;;20.85;39.66;101977.00;4164394;28;20071;-64
2022/05/09 01:19:58;;;;;;;1.85;1.25;;;;;;;20.83;39.76;101985.63;4164188;28;20095;-63
2022/05/09 01:22:01;;;;;;;2.45;1.20;;;;;;;20.75;39.66;101977.69;4164643;28;20103;-63
2022/05/09 01:24:13;;;;;;;1.75;1.25;;;;;;;20.81;39.45;101997.00;4164841;28;20037;-64
2022/05/09 01:26:15;;;;;;;1.67;0.95;;;;;;;20.81;39.17;101988.66;4166480;28;20455;-63
2022/05/09 01:28:16;;;;;;;1.40;1.20;;;;;;;20.81;39.33;101994.22;4167296;28;20095;-62
2022/05/09 01:30:24;;;;;;;1.42;1.10;;;;;;;20.70;39.41;101975.69;4167680;28;20103;-62
2022/05/09 01:32:45;;;;;;;1.40;1.10;;;;;;;20.78;39.73;101986.38;4169703;28;20068;-62
2022/05/09 01:34:52;;;;;;;1.13;1.02;;;;;;;20.76;39.82;101982.19;4168664;28;20183;-63
2022/05/09 01:37:03;;;;;;;1.38;1.17;;;;;;;20.79;39.71;101998.34;4167707;28;20045;-62
2022/05/09 01:39:11;;;;;;;1.80;1.30;;;;;;;20.80;39.65;101998.09;4168944;28;20092;-63
2022/05/09 01:41:13;;;;;;;1.50;1.13;;;;;;;20.77;39.76;101992.19;4184835;28;20098;-62
2022/05/09 01:43:30;;;;;;;2.83;1.15;;;;;;;20.75;39.92;101989.66;4168145;28;20041;-63
2022/05/09 01:45:32;;;;;;;1.48;1.23;;;;;;;20.80;39.56;101998.09;4167410;28;20392;-62
2022/05/09 01:49:53;;;;;;;1.67;1.30;;;;;;;20.79;39.58;101996.41;4167464;28;20111;-62
2022/05/09 01:51:54;;;;;;;1.83;1.35;;;;;;;20.78;39.72;102003.06;4167136;28;20037;-64
2022/05/09 01:53:56;;;;;;;2.47;1.10;;;;;;;20.78;39.75;102011.41;4167171;28;20095;-63
2022/05/09 01:55:58;;;;;;;2.35;1.67;;;;;;;20.79;39.92;102006.69;4167175;28;20045;-63
2022/05/09 01:58:02;;;;;;;1.42;1.10;;;;;;;20.74;39.74;102010.22;4167299;28;20118;-63
2022/05/09 02:00:08;;;;;;;2.65;1.17;;;;;;;20.79;39.87;102029.78;4167287;28;20029;-63
2022/05/09 02:02:13;;;;;;;1.45;1.23;;;;;;;20.79;39.80;102034.50;4168049;28;20045;-66
2022/05/09 02:04:15;;;;;;;2.20;1.10;;;;;;;20.65;39.97;102005.34;4174012;28;20053;-62
2022/05/09 02:06:23;;;;;;;2.20;1.48;;;;;;;20.68;40.25;102016.81;4181120;28;20094;-62
2022/05/09 02:08:26;;;;;;;2.28;1.35;;;;;;;20.35;39.86;101963.97;4189135;28;20046;-66
2022/05/09 02:10:28;;;;;;;1.40;1.10;;;;;;;20.71;40.01;102021.88;4180340;28;20094;-65
2022/05/09 02:12:30;;;;;;;1.80;1.17;;;;;;;20.80;39.97;102030.63;4199076;28;20044;-65
2022/05/09 02:14:31;;;;;;;1.98;1.13;;;;;;;20.80;39.94;102020.38;4199987;28;20036;-65
2022/05/09 02:16:33;;;;;;;1.58;1.00;;;;;;;20.79;40.26;102024.22;4197409;28;20040;-66
2022/05/09 02:18:35;;;;;;;1.65;1.38;;;;;;;20.79;39.95;102018.66;4199499;28;20044;-66
2022/05/09 02:20:37;;;;;;;3.20;1.20;;;;;;;20.79;40.28;102009.47;4198471;28;20037;-66
2022/05/09 02:22:38;;;;;;;2.15;1.40;;;;;;;20.79;40.33;102013.09;4200202;28;20462;-66
2022/05/09 02:24:48;;;;;;;1.73;1.35;;;;;;;20.79;39.95;102006.69;4197757;28;20490;-65
2022/05/09 02:26:49;;;;;;;4.32;1.15;;;;;;;20.77;40.28;102003.34;4182183;28;20041;-65
2022/05/09 02:28:51;;;;;;;3.70;1.38;;;;;;;20.21;40.29;101921.78;4199403;28;20339;-65
2022/05/09 02:30:52;;;;;;;2.83;1.25;;;;;;;20.79;40.23;102024.22;4200218;28;20082;-65
2022/05/09 02:32:57;;;;;;;2.70;1.33;;;;;;;20.69;40.16;101996.25;4189502;28;20460;-65
2022/05/09 02:34:58;;;;;;;1.90;1.23;;;;;;;20.79;40.10;102021.44;4181431;28;20106;-65
2022/05/09 02:37:00;;;;;;;2.70;1.20;;;;;;;20.79;40.13;102023.38;4184084;28;20040;-65
2022/05/09 02:39:01;;;;;;;3.60;1.77;;;;;;;20.78;40.11;102022.53;4200044;28;20074;-66
2022/05/09 02:41:02;;;;;;;2.70;1.10;;;;;;;20.78;40.09;102016.97;4181404;28;20436;-66
2022/05/09 02:43:04;;;;;;;2.85;1.30;;;;;;;20.78;40.31;102022.53;4181652;28;20037;-65
2022/05/09 02:45:07;;;;;;;3.80;1.25;;;;;;;20.75;40.02;102017.47;4169845;28;20048;-66
2022/05/09 02:47:08;;;;;;;2.63;1.40;;;;;;;20.77;40.44;102015.28;4183376;28;20079;-66
2022/05/09 02:49:12;;;;;;;2.45;1.20;;;;;;;20.76;40.21;102008.06;4182698;28;20410;-65
2022/05/09 02:51:14;;;;;;;1.47;1.27;;;;;;;20.78;40.01;102025.31;4192429;28;20095;-65
2022/05/09 02:53:15;;;;;;;1.88;1.20;;;;;;;20.79;40.03;102026.16;4193380;28;20549;-66
2022/05/09 02:55:18;;;;;;;3.03;1.25;;;;;;;20.76;40.43;102021.97;4189259;28;20095;-66
2022/05/09 02:57:19;;;;;;;3.75;1.25;;;;;;;20.76;40.36;102012.78;4184785;28;20103;-66
2022/05/09 02:59:21;;;;;;;41.20;3.75;;;;;;;20.66;40.67;101998.69;4183338;28;20110;-69
2022/05/09 03:01:22;;;;;;;5.55;1.50;;;;;;;20.68;40.61;102016.81;4187337;28;20033;-70
2022/05/09 03:05:45;;;;;;;12.30;2.00;;;;;;;20.65;40.84;102017.31;4179448;28;20075;-68
2022/05/09 03:07:50;;;;;;;10.50;1.90;;;;;;;20.66;40.93;102009.81;4182298;28;20075;-69
2022/05/09 03:09:51;;;;;;;8.30;2.10;;;;;;;20.67;41.19;102014.31;4181516;28;20630;-70
2022/05/09 03:11:52;;;;;;;12.20;1.90;;;;;;;20.70;40.80;102011.84;4181788;28;20045;-70
2022/05/09 03:13:54;;;;;;;10.75;1.70;;;;;;;20.70;40.98;102006.28;4182189;28;20111;-70
2022/05/09 03:15:55;;;;;;;9.52;1.77;;;;;;;20.72;41.28;102012.44;4169260;28;20214;-70
2022/05/09 03:17:59;;;;;;;13.60;2.10;;;;;;;20.80;41.15;102020.38;4171911;28;20087;-70
2022/05/09 03:20:00;;;;;;;8.55;2.47;;;;;;;20.80;41.38;102014.81;4182430;28;20107;-70
2022/05/09 03:22:06;;;;;;;10.27;3.35;;;;;;;20.86;41.51;102028.78;4182166;28;20041;-69
2022/05/09 03:24:08;;;;;;;12.75;2.50;;;;;;;20.88;41.46;102024.63;4182604;28;20447;-69
2022/05/09 03:26:09;;;;;;;12.15;2.33;;;;;;;20.86;41.46;102012.09;4177834;28;20106;-69
2022/05/09 03:28:19;;;;;;;10.05;2.03;;;;;;;20.85;41.05;102010.38;4182709;28;20546;-69
2022/05/09 03:30:21;;;;;;;9.07;2.17;;;;;;;20.96;41.32;102017.81;4197138;28;20041;-69
2022/05/09 03:32:22;;;;;;;16.05;3.47;;;;;;;20.96;41.39;102013.06;4184654;28;20401;-68
2022/05/09 03:34:23;;;;;;;11.52;2.35;;;;;;;20.98;40.94;102019.25;4182123;28;20040;-68
2022/05/09 03:36:25;;;;;;;6.90;2.17;;;;;;;21.01;41.03;102015.09;4180507;28;20045;-69
2022/05/09 03:38:28;;;;;;;9.02;2.20;;;;;;;21.00;41.13;102016.19;4184292;28;20037;-69
2022/05/09 03:40:29;;;;;;;15.82;2.80;;;;;;;21.04;40.95;102014.59;4183090;28;20045;-69
2022/05/09 03:42:31;;;;;;;8.73;2.50;;;;;;;21.05;40.72;102025.47;4184468;28;20102;-70
2022/05/09 03:44:33;;;;;;;8.60;2.13;;;;;;;20.96;40.78;102001.09;4185679;28;20044;-70
2022/05/09 03:46:34;;;;;;;9.77;2.17;;;;;;;21.09;40.79;102020.22;4188463;28;20052;-69
2022/05/09 03:48:39;;;;;;;12.65;2.47;;;;;;;21.10;40.85;102018.28;4169845;28;20049;-68
2022/05/09 03:50:40;;;;;;;6.60;1.80;;;;;;;21.09;41.09;102017.44;4179183;28;20053;-69
2022/05/09 03:52:42;;;;;;;8.93;2.45;;;;;;;21.11;40.77;102018.03;4183366;28;20041;-70
2022/05/09 03:54:43;;;;;;;9.60;2.95;;;;;;;21.12;40.73;102011.38;4182559;28;20045;-68
2022/05/09 03:56:45;;;;;;;9.10;2.10;;;;;;;21.12;41.00;102016.06;4175949;28;20075;-68
2022/05/09 03:58:48;;;;;;;6.40;2.47;;;;;;;21.02;40.88;102000.06;4168835;28;20049;-68
2022/05/09 04:00:52;;;;;;;4.43;1.75;;;;;;;21.14;40.99;102014.72;4169525;28;20041;-68
2022/05/09 04:02:54;;;;;;;9.75;2.33;;;;;;;21.15;40.68;102015.56;4186089;28;20041;-67
2022/05/09 04:04:55;;;;;;;11.73;2.20;;;;;;;21.13;40.90;102006.66;4187448;28;20129;-68
2022/05/09 04:06:57;;;;;;;13.85;2.50;;;;;;;21.16;40.98;102009.75;4172210;28;20037;-68
2022/05/09 04:08:58;;;;;;;10.00;1.95;;;;;;;21.16;40.57;102020.88;4184658;28;20569;-69
2022/05/09 04:11:02;;;;;;;5.85;1.90;;;;;;;21.17;40.70;102016.19;4168280;28;20385;-68
2022/05/09 04:13:04;;;;;;;7.37;2.60;;;;;;;21.16;40.72;102018.09;4166868;28;20570;-68
2022/05/09 04:17:29;;;;;;;9.00;2.17;;;;;;;21.17;40.73;102019.81;4165738;28;20079;-69
2022/05/09 04:19:31;;;;;;;11.60;2.00;;;;;;;21.16;40.38;102012.53;4169724;28;20041;-69
2022/05/09 04:21:35;;;;;;;8.63;2.00;;;;;;;21.16;40.70;102009.75;4183283;28;20324;-69
2022/05/09 04:23:40;;;;;;;8.43;2.00;;;;;;;21.17;40.85;102019.81;4182178;28;20045;-69
2022/05/09 04:25:42;;;;;;;10.13;2.03;;;;;;;21.17;40.48;102005.88;4180892;28;20037;-68
2022/05/09 04:27:43;;;;;;;5.18;2.13;;;;;;;21.11;40.81;101990.19;4172651;28;20091;-68
2022/05/09 04:29:46;;;;;;;6.35;1.95;;;;;;;21.18;40.74;102015.06;4183678;28;20048;-69
2022/05/09 04:31:48;;;;;;;12.98;2.05;;;;;;;21.18;40.45;102013.13;4179847;28;20095;-69
2022/05/09 04:33:49;;;;;;;7.50;2.03;;;;;;;21.18;40.47;102009.50;4182316;28;20041;-69
2022/05/09 04:35:51;;;;;;;4.15;1.90;;;;;;;21.17;40.49;102014.22;4181556;28;20048;-68
2022/05/09 04:37:54;;;;;;;7.95;2.13;;;;;;;21.15;40.72;102005.28;4181280;28;20098;-69
2022/05/09 04:40:01;;;;;;;5.38;2.20;;;;;;;21.08;40.64;101985.16;4176987;28;20100;-68
2022/05/09 04:42:03;;;;;;;4.20;1.60;;;;;;;21.16;40.73;101995.81;4181083;28;20094;-69
2022/05/09 04:44:05;;;;;;;6.28;1.63;;;;;;;21.17;40.39;101997.53;4180552;28;20041;-67
2022/05/09 04:46:07;;;;;;;7.75;2.60;;;;;;;21.17;40.67;101997.53;4180778;28;20033;-68
2022/05/09 04:48:08;;;;;;;5.63;1.75;;;;;;;21.17;40.42;102011.44;4180476;28;20037;-69
2022/05/09 04:50:12;;;;;;;7.10;1.80;;;;;;;21.16;40.36;102001.38;4181112;28;20404;-68
2022/05/09 04:52:16;;;;;;;4.80;1.42;;;;;;;21.17;40.56;102002.25;4181175;28;20420;-68
2022/05/09 04:54:20;;;;;;;6.30;1.65;;;;;;;21.16;40.75;102006.97;4180189;28;20079;-69
2022/05/09 04:56:21;;;;;;;8.75;2.00;;;;;;;21.16;40.33;101998.59;4180237;28;20076;-69
2022/05/09 04:58:26;;;;;;;5.50;2.05;;;;;;;21.16;40.46;102000.56;4167986;28;20041;-69
2022/05/09 05:00:27;;;;;;;3.72;2.05;;;;;;;21.16;40.26;101994.97;4182785;28;20091;-69
2022/05/09 05:02:29;;;;;;;8.80;1.85;;;;;;;21.17;40.34;101996.69;4181492;28;20040;-69
2022/05/09 05:04:30;;;;;;;2.95;1.90;;;;;;;21.15;40.56;101994.16;4171885;28;20627;-69
2022/05/09 05:06:32;;;;;;;5.15;2.20;;;;;;;21.16;40.31;101995.81;4190158;28;20032;-69
2022/05/09 05:08:34;;;;;;;4.30;1.65;;;;;;;21.15;40.27;101980.22;4183603;28;20036;-69
2022/05/09 05:10:36;;;;;;;3.47;1.58;;;;;;;21.16;40.19;101984.69;4181584;28;20084;-69
2022/05/09 05:12:40;;;;;;;5.75;1.73;;;;;;;21.10;40.52;101968.19;4184343;28;20044;-69
2022/05/09 05:14:41;;;;;;;4.65;1.73;;;;;;;21.15;40.64;101980.22;4182458;28;20483;-69
2022/05/09 05:17:01;;;;;;;3.25;1.60;;;;;;;21.16;40.27;101968.00;4185840;28;20037;-69
2022/05/09 05:19:02;;;;;;;5.65;1.50;;;;;;;21.15;40.19;101971.88;4180521;28;20030;-69
2022/05/09 05:21:12;;;;;;;4.00;1.77;;;;;;;21.14;40.66;101959.06;4182160;28;20040;-69
2022/05/09 05:23:13;;;;;;;5.45;2.28;;;;;;;21.12;40.27;101965.97;4184191;28;20094;-69
2022/05/09 05:25:21;;;;;;;4.22;1.60;;;;;;;21.11;40.57;101954.00;4169368;28;20045;-68
2022/05/09 05:27:23;;;;;;;7.05;1.88;;;;;;;21.14;40.34;101953.50;4183495;28;20147;-68
2022/05/09 05:29:29;;;;;;;2.30;1.20;;;;;;;21.09;40.46;101944.25;4184291;28;20365;-68
2022/05/09 05:31:33;;;;;;;4.18;1.77;;;;;;;21.11;40.36;101951.22;4169616;28;20416;-69
2022/05/09 05:33:35;;;;;;;6.80;1.45;;;;;;;21.14;40.49;101947.09;4183868;28;20562;-68
2022/05/09 05:35:36;;;;;;;4.57;1.75;;;;;;;21.09;40.24;101939.53;4182629;28;20044;-69
2022/05/09 05:37:41;;;;;;;2.53;1.52;;;;;;;21.14;40.61;101941.53;4181795;28;20040;-68
2022/05/09 05:39:44;;;;;;;8.38;1.90;;;;;;;21.13;40.66;101935.13;4183523;28;20090;-68
2022/05/09 05:41:48;;;;;;;3.92;1.98;;;;;;;21.12;40.65;101927.00;4171520;28;20037;-68
2022/05/09 05:43:52;;;;;;;4.47;1.95;;;;;;;21.13;40.43;101924.00;4168840;28;20042;-68
2022/05/09 05:45:57;;;;;;;4.97;1.53;;;;;;;21.13;40.41;101924.00;4181405;28;20032;-68
2022/05/09 05:47:59;;;;;;;4.97;1.75;;;;;;;21.14;40.29;101928.44;4183153;28;20688;-68
2022/05/09 05:50:02;;;;;;;3.17;1.58;;;;;;;21.14;40.38;101928.44;4181840;28;20142;-68
2022/05/09 05:52:04;;;;;;;3.85;1.90;;;;;;;21.14;40.38;101924.81;4178229;28;20533;-68
2022/05/09 05:54:06;;;;;;;4.63;1.67;;;;;;;21.13;40.65;101917.59;4185830;28;20041;-69
2022/05/09 05:56:10;;;;;;;2.58;1.60;;;;;;;21.12;40.51;101910.31;4179667;28;20037;-69
2022/05/09 05:58:11;;;;;;;3.30;1.80;;;;;;;21.08;40.39;101912.78;4182072;28;20037;-69
2022/05/09 06:00:20;;;;;;;3.42;1.80;;;;;;;21.08;40.33;101912.78;4176447;28;20553;-69
2022/05/09 06:02:25;;;;;;;2.85;1.55;;;;;;;21.11;40.15;101915.03;4174323;28;20095;-68
2022/05/09 06:04:26;;;;;;;3.38;1.67;;;;;;;21.12;40.23;101916.75;4174755;28;20045;-69
2022/05/09 06:06:27;;;;;;;4.65;1.48;;;;;;;20.96;40.62;101895.38;4181841;28;20029;-69
2022/05/09 06:08:31;;;;;;;8.15;1.67;;;;;;;21.12;40.20;101916.75;4182360;28;20040;-69
2022/05/09 06:10:33;;;;;;;6.38;1.67;;;;;;;21.10;40.18;101912.53;4182180;28;20495;-69
2022/05/09 06:12:35;;;;;;;4.97;1.98;;;;;;;21.11;40.17;101923.38;4166364;28;20042;-69
2022/05/09 06:14:41;;;;;;;3.60;1.25;;;;;;;20.94;40.24;101886.47;4169205;28;20041;-69
2022/05/09 06:16:43;;;;;;;3.13;1.60;;;;;;;21.10;40.45;101907.81;4180326;28;20067;-68
2022/05/09 06:18:46;;;;;;;2.92;1.35;;;;;;;21.03;40.48;101896.88;4180100;28;20118;-69
2022/05/09 06:20:51;;;;;;;2.65;1.60;;;;;;;21.10;40.25;101913.38;4184796;28;20117;-69
2022/05/09 06:22:56;;;;;;;2.80;1.40;;;;;;;21.10;40.15;101912.53;4177654;28;20100;-69
2022/05/09 06:25:02;;;;;;;4.00;2.05;;;;;;;21.09;40.28;101900.56;4183079;28;20070;-69
2022/05/09 06:27:03;;;;;;;2.58;1.60;;;;;;;20.85;40.75;101860.16;4168703;28;20489;-69
2022/05/09 06:29:08;;;;;;;3.08;1.35;;;;;;;21.05;40.53;101896.59;4194192;28;20040;-69
2022/05/09 06:31:09;;;;;;;2.08;1.17;;;;;;;21.07;40.15;101897.16;4185416;28;20044;-69
2022/05/09 06:33:11;;;;;;;4.93;2.22;;;;;;;21.07;40.10;101899.97;4166994;28;20034;-69
2022/05/09 06:35:23;;;;;;;4.18;1.33;;;;;;;21.08;40.66;101910.00;4186937;28;20036;-70
2022/05/09 06:37:25;;;;;;;3.83;1.75;;;;;;;21.08;40.31;101898.88;4178468;28;20037;-69
2022/05/09 06:39:29;;;;;;;4.30;1.70;;;;;;;21.05;40.28;101899.38;4182413;28;20041;-69
2022/05/09 06:41:31;;;;;;;2.88;1.67;;;;;;;21.06;40.56;101907.47;4187994;28;20480;-69
2022/05/09 06:43:32;;;;;;;3.83;1.90;;;;;;;21.06;40.19;101907.47;4186226;28;20113;-69
2022/05/09 06:45:34;;;;;;;2.13;1.23;;;;;;;21.05;40.55;101905.78;4184524;28;20045;-71
2022/05/09 06:47:44;;;;;;;2.03;1.40;;;;;;;21.05;40.61;101904.94;4188302;28;20048;-70
2022/05/09 06:49:49;;;;;;;2.15;1.50;;;;;;;21.04;40.57;101908.84;4189156;28;20037;-69
2022/05/09 06:51:50;;;;;;;2.65;1.40;;;;;;;21.06;40.24;101917.75;4188375;28;20078;-69
2022/05/09 06:53:52;;;;;;;2.47;1.40;;;;;;;21.05;40.41;101907.75;4185334;28;20048;-69
2022/05/09 06:55:53;;;;;;;2.33;1.20;;;;;;;21.04;40.13;101900.50;4177512;28;20053;-69
2022/05/09 06:57:55;;;;;;;1.73;1.40;;;;;;;21.03;40.42;101902.44;4175884;28;20049;-69
2022/05/09 06:59:56;;;;;;;2.40;1.63;;;;;;;21.04;40.34;101908.84;4169272;28;20038;-69
2022/05/09 07:01:58;;;;;;;2.50;1.50;;;;;;;21.02;40.18;101911.88;4166273;28;20099;-70
2022/05/09 07:03:59;;;;;;;5.50;1.75;;;;;;;20.96;40.37;101895.38;4182185;28;20041;-69
2022/05/09 07:06:01;;;;;;;2.38;1.17;;;;;;;21.01;40.48;101915.75;4174266;28;20573;-69
2022/05/09 07:08:03;;;;;;;1.83;1.10;;;;;;;21.02;40.46;101911.03;4179964;28;20037;-69
2022/05/09 07:10:05;;;;;;;1.88;1.40;;;;;;;21.01;40.13;101901.00;4179744;28;20463;-69
2022/05/09 07:12:07;;;;;;;2.42;1.58;;;;;;;21.00;40.26;101897.38;4183955;28;20095;-69
2022/05/09 07:14:29;;;;;;;1.70;1.02;;;;;;;20.99;40.62;101903.22;4190162;28;20082;-69
2022/05/09 07:16:30;;;;;;;4.47;1.52;;;;;;;20.98;40.58;101898.72;4174228;28;20041;-69
2022/05/09 07:18:32;;;;;;;3.00;1.42;;;;;;;20.99;40.31;101906.84;4181732;28;20110;-69
2022/05/09 07:20:34;;;;;;;2.78;1.55;;;;;;;21.00;40.49;101902.09;4181369;28;20102;-69
2022/05/09 07:22:36;;;;;;;2.15;1.48;;;;;;;20.99;40.50;101894.88;4191338;28;20044;-70
2022/05/09 07:24:37;;;;;;;4.20;1.65;;;;;;;20.94;40.30;101897.59;4194485;28;20052;-69
2022/05/09 07:26:39;;;;;;;2.85;1.50;;;;;;;20.98;40.56;101904.28;4186838;28;20519;-69
2022/05/09 07:28:42;;;;;;;3.60;1.30;;;;;;;20.97;40.52;101908.19;4179748;28;20086;-68
2022/05/09 07:30:43;;;;;;;2.72;1.10;;;;;;;20.96;40.17;101904.56;4171102;28;20045;-68
2022/05/09 07:32:46;;;;;;;1.50;1.17;;;;;;;20.96;40.26;101898.16;4182043;28;20075;-68
2022/05/09 07:34:49;;;;;;;1.98;1.30;;;;;;;20.83;40.48;101884.63;4180646;28;20430;-68
2022/05/09 07:36:50;;;;;;;4.97;1.48;;;;;;;20.96;40.24;101917.63;4175364;28;20095;-69
2022/05/09 07:38:51;;;;;;;2.22;1.30;;;;;;;20.96;40.46;101918.47;4177586;28;20045;-68
2022/05/09 07:40:53;;;;;;;4.70;1.63;;;;;;;20.95;40.53;101922.38;4178211;28;20040;-68
2022/05/09 07:42:55;;;;;;;2.63;1.30;;;;;;;20.95;40.21;101922.38;4179142;28;20037;-69
2022/05/09 07:44:56;;;;;;;2.55;1.52;;;;;;;20.94;40.33;101929.03;4181610;28;20037;-68
2022/05/09 07:46:58;;;;;;;2.13;1.42;;;;;;;20.93;40.07;101929.28;4171084;28;20049;-69
2022/05/09 07:49:00;;;;;;;3.35;1.30;;;;;;;20.84;40.35;101911.34;4170374;28;20044;-68
2022/05/09 07:51:02;;;;;;;2.03;1.45;;;;;;;20.93;39.97;101935.66;4178722;28;20040;-68
2022/05/09 07:53:18;;;;;;;2.38;1.45;;;;;;;20.91;40.24;101932.31;4185303;28;20136;-68
2022/05/09 07:55:19;;;;;;;2.13;1.45;;;;;;;20.94;40.10;101930.97;4190843;28;20098;-69
2022/05/09 07:57:21;;;;;;;2.33;1.40;;;;;;;20.94;40.29;101930.97;4189697;28;20037;-69
2022/05/09 07:59:22;;;;;;;2.40;1.70;;;;;;;20.93;40.31;101929.28;4179746;28;20041;-68
2022/05/09 08:01:24;;;;;;;2.17;1.50;;;;;;;20.92;39.85;101934.00;4175463;28;20104;-69
2022/05/09 08:03:29;;;;;;;3.28;1.30;;;;;;;20.78;40.42;101911.28;4165171;28;20045;-68
2022/05/09 08:05:31;;;;;;;1.23;1.13;;;;;;;20.92;40.28;101933.16;4165519;28;20037;-69
2022/05/09 08:07:32;;;;;;;1.83;1.40;;;;;;;20.90;40.10;101933.44;4180859;28;20079;-68
2022/05/09 08:09:34;;;;;;;2.67;1.48;;;;;;;20.92;40.12;101938.72;4181265;28;20586;-68
2022/05/09 08:11:35;;;;;;;2.05;1.35;;;;;;;20.78;40.27;101925.19;4178724;28;20097;-68
2022/05/09 08:13:39;;;;;;;3.13;1.48;;;;;;;20.89;40.17;101945.66;4179400;28;20037;-68
2022/05/09 08:15:45;;;;;;;5.25;1.42;;;;;;;20.87;40.18;101938.66;4175055;28;20041;-68
2022/05/09 08:17:49;;;;;;;1.73;1.38;;;;;;;20.89;40.29;101951.22;4172147;28;20053;-69
2022/05/09 08:19:55;;;;;;;2.63;1.38;;;;;;;20.89;39.98;101953.13;4164777;28;20041;-68
2022/05/09 08:22:03;;;;;;;2.30;1.30;;;;;;;20.79;40.31;101943.53;4183917;28;20044;-68
2022/05/09 08:24:06;;;;;;;2.75;1.42;;;;;;;20.88;40.02;101954.25;4180504;28;20075;-68
2022/05/09 08:26:07;;;;;;;2.03;1.30;;;;;;;20.88;40.41;101957.03;4169922;28;20037;-68
2022/05/09 08:28:09;;;;;;;3.50;1.60;;;;;;;20.88;40.06;101954.25;4179434;28;20041;-68
2022/05/09 08:30:12;;;;;;;4.18;1.42;;;;;;;20.83;39.96;101951.38;4180007;28;20102;-68
2022/05/09 08:32:16;;;;;;;1.58;1.35;;;;;;;20.87;40.15;101953.41;4176267;28;20042;-68
2022/05/09 08:34:17;;;;;;;1.90;1.50;;;;;;;20.88;40.03;101965.38;4171538;28;20091;-68
2022/05/09 08:38:41;;;;;;;1.60;1.50;;;;;;;20.85;40.31;101954.75;4186062;28;20106;-68
2022/05/09 08:41:11;;;;;;;1.80;1.40;;;;;;;20.85;40.15;101955.63;4166351;28;20492;-68
2022/05/09 08:43:59;;;;;;;1.92;1.40;;;;;;;20.83;40.11;101957.78;4181397;28;20098;-68
2022/05/09 08:46:32;;;;;;;4.43;1.58;;;;;;;20.84;40.21;101953.06;4161898;28;20049;-68
2022/05/09 08:49:17;;;;;;;1.60;1.20;;;;;;;20.84;40.38;101965.03;4184120;28;20057;-68
2022/05/09 08:51:58;;;;;;;1.90;1.35;;;;;;;20.84;40.39;101966.97;4170029;28;20479;-68
2022/05/09 08:54:06;;;;;;;2.55;1.38;;;;;;;20.85;40.14;101971.44;4180699;28;20409;-68
2022/05/09 08:56:13;;;;;;;2.83;1.42;;;;;;;20.84;40.06;101975.31;4181392;28;20067;-68
2022/05/09 08:58:22;;;;;;;1.48;1.17;;;;;;;20.82;39.86;101983.94;4167474;28;20114;-68
2022/05/09 09:00:29;;;;;;;1.45;1.30;;;;;;;20.83;40.01;101984.78;4170366;28;20045;-68
2022/05/09 09:03:01;;;;;;;2.38;1.35;;;;;;;20.81;39.81;101987.81;4180648;28;20373;-69
2022/05/09 09:05:06;;;;;;;2.80;1.13;;;;;;;20.77;40.20;101979.13;4164494;28;20041;-68
2022/05/09 09:07:39;;;;;;;1.67;1.08;;;;;;;20.81;40.03;101994.22;4188631;28;20442;-69
2022/05/09 09:10:01;;;;;;;1.50;1.30;;;;;;;20.79;40.17;101990.84;4153396;28;20041;-68
2022/05/09 09:12:13;;;;;;;3.58;1.17;;;;;;;20.70;39.77;101986.78;4176068;28;20049;-68
2022/05/09 09:14:18;;;;;;;1.83;1.30;;;;;;;20.79;39.82;101996.41;4178506;28;20076;-68
2022/05/09 09:16:42;;;;;;;2.47;1.53;;;;;;;20.78;39.72;102011.41;4182482;28;20044;-68
2022/05/09 09:19:00;;;;;;;1.50;1.23;;;;;;;20.77;39.86;102003.34;4190506;28;20561;-67
2022/05/09 09:21:27;;;;;;;1.98;1.35;;;;;;;20.78;39.75;102002.22;4171129;28;20491;-68
2022/05/09 09:23:33;;;;;;;;;;;;;;;20.75;40.13;102011.91;4175690;28;20049;-68
2022/05/09 09:25:42;;;;;;;2.38;1.60;;;;;;;20.78;39.85;102011.41;4180782;28;19970;-68
2022/05/09 09:27:48;;;;;;;1.67;1.10;;;;;;;20.81;39.92;102024.81;4188262;28;20491;-69
2022/05/09 09:29:56;;;;;;;1.75;1.33;;;;;;;20.73;39.83;102019.69;4183664;28;20040;-69
2022/05/09 09:32:06;;;;;;;1.60;1.48;;;;;;;20.78;39.93;102025.31;4177784;28;20086;-69
2022/05/09 09:34:42;;;;;;;1.38;1.20;;;;;;;20.75;39.83;102027.75;4192132;28;20090;-69
2022/05/09 09:36:53;;;;;;;1.90;1.55;;;;;;;20.77;39.57;102031.16;4167332;28;20090;-69
2022/05/09 09:39:27;;;;;;;1.83;1.30;;;;;;;20.72;39.75;102018.00;4173606;28;20037;-69
2022/05/09 09:41:37;;;;;;;2.15;1.42;;;;;;;20.75;39.53;102023.03;4150397;28;20045;-69
2022/05/09 09:43:38;;;;;;;1.70;1.23;;;;;;;20.71;39.81;102021.00;4175866;28;20095;-69
2022/05/09 09:46:04;;;;;;;3.33;1.20;;;;;;;20.70;39.76;102036.88;4180384;28;20037;-70
2022/05/09 09:48:12;;;;;;;1.57;1.07;;;;;;;20.72;39.70;102028.28;4181849;28;20044;-69
2022/05/09 09:50:19;;;;;;;1.45;1.20;;;;;;;20.70;39.92;102036.88;4170223;28;20056;-69